sensor_id;sensor_type;location;lat;lon;timestamp;pressure;altitude;pressure_sealevel;temperature;humidity
69796;BME280;57073;45.650;9.612;2022-07-18T00:00:48;99771.25;;;28.75;39.25
69796;BME280;57073;45.650;9.612;2022-07-18T00:02:48;99765.56;;;28.80;38.53
69796;BME280;57073;45.650;9.612;2022-07-18T00:04:48;99772.88;;;28.85;39.01
69796;BME280;57073;45.650;9.612;2022-07-18T00:06:49;99771.38;;;28.87;38.93
69796;BME280;57073;45.650;9.612;2022-07-18T00:08:49;99774.31;;;28.82;38.79
69796;BME280;57073;45.650;9.612;2022-07-18T00:10:50;99762.47;;;28.82;38.99
69796;BME280;57073;45.650;9.612;2022-07-18T00:12:50;99764.94;;;28.66;39.21
69796;BME280;57073;45.650;9.612;2022-07-18T00:14:51;99765.06;;;28.78;39.32
69796;BME280;57073;45.650;9.612;2022-07-18T00:16:51;99769.47;;;28.79;38.69
69796;BME280;57073;45.650;9.612;2022-07-18T00:18:51;99759.38;;;28.83;39.00
69796;BME280;57073;45.650;9.612;2022-07-18T00:20:52;99763.78;;;28.76;39.06
69796;BME280;57073;45.650;9.612;2022-07-18T00:22:52;99770.28;;;28.80;39.08
69796;BME280;57073;45.650;9.612;2022-07-18T00:24:53;99769.16;;;28.81;39.03
69796;BME280;57073;45.650;9.612;2022-07-18T00:26:53;99760.41;;;28.70;39.39
69796;BME280;57073;45.650;9.612;2022-07-18T00:28:54;99772.09;;;28.67;39.87
69796;BME280;57073;45.650;9.612;2022-07-18T00:30:54;99771.25;;;28.84;39.56
69796;BME280;57073;45.650;9.612;2022-07-18T00:32:55;99770.91;;;28.94;38.96
69796;BME280;57073;45.650;9.612;2022-07-18T00:34:55;99770.41;;;29.01;39.25
69796;BME280;57073;45.650;9.612;2022-07-18T00:36:55;99781.75;;;29.08;39.40
69796;BME280;57073;45.650;9.612;2022-07-18T00:38:56;99772.97;;;29.06;39.25
69796;BME280;57073;45.650;9.612;2022-07-18T00:40:57;99771.06;;;28.98;39.30
69796;BME280;57073;45.650;9.612;2022-07-18T00:42:57;99774.75;;;29.11;38.75
69796;BME280;57073;45.650;9.612;2022-07-18T00:44:58;99781.75;;;29.08;38.85
69796;BME280;57073;45.650;9.612;2022-07-18T00:47:01;99780.78;;;29.04;38.80
69796;BME280;57073;45.650;9.612;2022-07-18T00:49:02;99771.69;;;28.95;38.92
69796;BME280;57073;45.650;9.612;2022-07-18T00:51:03;99773.81;;;28.89;39.24
69796;BME280;57073;45.650;9.612;2022-07-18T00:53:03;99771.25;;;28.84;39.01
69796;BME280;57073;45.650;9.612;2022-07-18T00:55:06;99768.94;;;28.86;39.14
69796;BME280;57073;45.650;9.612;2022-07-18T00:57:06;99778.72;;;28.75;38.91
69796;BME280;57073;45.650;9.612;2022-07-18T00:59:07;99775.16;;;28.92;39.03
69796;BME280;57073;45.650;9.612;2022-07-18T01:01:07;99779.53;;;28.75;39.10
69796;BME280;57073;45.650;9.612;2022-07-18T01:03:27;99770.13;;;28.76;39.52
69796;BME280;57073;45.650;9.612;2022-07-18T01:05:28;99770.91;;;28.77;39.38
69796;BME280;57073;45.650;9.612;2022-07-18T01:07:28;99773.03;;;28.71;39.88
69796;BME280;57073;45.650;9.612;2022-07-18T01:09:29;99778.56;;;28.89;39.13
69796;BME280;57073;45.650;9.612;2022-07-18T01:11:30;99774.47;;;28.95;38.71
69796;BME280;57073;45.650;9.612;2022-07-18T01:13:30;99768.78;;;29.00;38.76
69796;BME280;57073;45.650;9.612;2022-07-18T01:15:31;99775.94;;;29.01;38.89
69796;BME280;57073;45.650;9.612;2022-07-18T01:17:31;99781.16;;;28.94;39.25
69796;BME280;57073;45.650;9.612;2022-07-18T01:19:32;99776.91;;;28.96;39.08
69796;BME280;57073;45.650;9.612;2022-07-18T01:21:32;99784.00;;;29.06;38.48
69796;BME280;57073;45.650;9.612;2022-07-18T01:23:33;99776.88;;;29.05;38.80
69796;BME280;57073;45.650;9.612;2022-07-18T01:25:33;99784.53;;;29.08;39.19
69796;BME280;57073;45.650;9.612;2022-07-18T01:27:35;99787.94;;;29.05;39.44
69796;BME280;57073;45.650;9.612;2022-07-18T01:29:35;99778.19;;;28.99;39.42
69796;BME280;57073;45.650;9.612;2022-07-18T01:31:36;99780.00;;;28.95;39.15
69796;BME280;57073;45.650;9.612;2022-07-18T01:33:36;99786.66;;;28.94;39.97
69796;BME280;57073;45.650;9.612;2022-07-18T01:35:36;99782.75;;;28.95;40.57
69796;BME280;57073;45.650;9.612;2022-07-18T01:37:37;99781.16;;;28.94;41.04
69796;BME280;57073;45.650;9.612;2022-07-18T01:39:38;99780.47;;;28.97;40.98
69796;BME280;57073;45.650;9.612;2022-07-18T01:41:38;99784.38;;;28.96;41.21
69796;BME280;57073;45.650;9.612;2022-07-18T01:43:40;99786.19;;;28.92;41.03
69796;BME280;57073;45.650;9.612;2022-07-18T01:45:41;99782.75;;;28.86;40.79
69796;BME280;57073;45.650;9.612;2022-07-18T01:47:42;99777.59;;;28.76;41.29
69796;BME280;57073;45.650;9.612;2022-07-18T01:49:43;99786.53;;;28.73;41.32
69796;BME280;57073;45.650;9.612;2022-07-18T01:51:47;99783.44;;;28.74;41.20
69796;BME280;57073;45.650;9.612;2022-07-18T01:53:56;99786.84;;;28.71;41.84
69796;BME280;57073;45.650;9.612;2022-07-18T01:56:02;99781.66;;;28.70;41.34
69796;BME280;57073;45.650;9.612;2022-07-18T01:58:02;99787.34;;;28.64;41.33
69796;BME280;57073;45.650;9.612;2022-07-18T02:00:05;99787.03;;;28.66;41.45
69796;BME280;57073;45.650;9.612;2022-07-18T02:02:06;99790.94;;;28.65;41.45
69796;BME280;57073;45.650;9.612;2022-07-18T02:04:06;99790.09;;;28.64;41.43
69796;BME280;57073;45.650;9.612;2022-07-18T02:06:07;99790.09;;;28.64;41.85
69796;BME280;57073;45.650;9.612;2022-07-18T02:08:07;99797.91;;;28.62;41.62
69796;BME280;57073;45.650;9.612;2022-07-18T02:10:15;99790.09;;;28.64;41.06
69796;BME280;57073;45.650;9.612;2022-07-18T02:12:15;99796.63;;;28.60;41.23
69796;BME280;57073;45.650;9.612;2022-07-18T02:14:16;99787.84;;;28.58;41.43
69796;BME280;57073;45.650;9.612;2022-07-18T02:16:16;99796.41;;;28.47;41.37
69796;BME280;57073;45.650;9.612;2022-07-18T02:18:17;99792.91;;;28.56;41.45
69796;BME280;57073;45.650;9.612;2022-07-18T02:20:17;99795.34;;;28.57;41.33
69796;BME280;57073;45.650;9.612;2022-07-18T02:22:17;99798.91;;;28.58;40.95
69796;BME280;57073;45.650;9.612;2022-07-18T02:24:18;99794.50;;;28.57;41.65
69796;BME280;57073;45.650;9.612;2022-07-18T02:26:18;99791.38;;;28.49;41.35
69796;BME280;57073;45.650;9.612;2022-07-18T02:28:19;99797.25;;;28.39;41.84
69796;BME280;57073;45.650;9.612;2022-07-18T02:30:19;99798.69;;;28.45;41.28
69796;BME280;57073;45.650;9.612;2022-07-18T02:32:20;99785.22;;;28.44;41.33
69796;BME280;57073;45.650;9.612;2022-07-18T02:34:22;99786.38;;;28.43;41.05
69796;BME280;57073;45.650;9.612;2022-07-18T02:36:22;99788.97;;;28.39;41.49
69796;BME280;57073;45.650;9.612;2022-07-18T02:38:23;99792.84;;;28.38;42.14
69796;BME280;57073;45.650;9.612;2022-07-18T02:40:23;99792.69;;;28.35;41.70
69796;BME280;57073;45.650;9.612;2022-07-18T02:42:24;99800.66;;;28.36;42.10
69796;BME280;57073;45.650;9.612;2022-07-18T02:44:24;99793.16;;;28.37;41.87
69796;BME280;57073;45.650;9.612;2022-07-18T02:46:25;99798.38;;;28.38;42.41
69796;BME280;57073;45.650;9.612;2022-07-18T02:48:25;99796.41;;;28.39;41.73
69796;BME280;57073;45.650;9.612;2022-07-18T02:50:26;99799.00;;;28.35;41.63
69796;BME280;57073;45.650;9.612;2022-07-18T02:52:26;99793.50;;;28.35;41.86
69796;BME280;57073;45.650;9.612;2022-07-18T02:54:28;99802.59;;;28.27;41.62
69796;BME280;57073;45.650;9.612;2022-07-18T02:56:29;99797.88;;;28.27;42.08
69796;BME280;57073;45.650;9.612;2022-07-18T02:58:30;99801.44;;;28.28;42.44
69796;BME280;57073;45.650;9.612;2022-07-18T03:00:32;99797.56;;;28.29;41.89
69796;BME280;57073;45.650;9.612;2022-07-18T03:02:32;99791.06;;;28.25;41.98
69796;BME280;57073;45.650;9.612;2022-07-18T03:04:33;99792.34;;;28.27;42.05
69796;BME280;57073;45.650;9.612;2022-07-18T03:06:33;99799.94;;;28.04;42.11
69796;BME280;57073;45.650;9.612;2022-07-18T03:08:34;99799.16;;;28.04;42.18
69796;BME280;57073;45.650;9.612;2022-07-18T03:10:34;99801.25;;;27.98;42.51
69796;BME280;57073;45.650;9.612;2022-07-18T03:12:34;99795.56;;;27.95;42.37
69796;BME280;57073;45.650;9.612;2022-07-18T03:14:35;99796.00;;;27.88;42.86
69796;BME280;57073;45.650;9.612;2022-07-18T03:16:35;99801.72;;;27.91;42.39
69796;BME280;57073;45.650;9.612;2022-07-18T03:18:36;99808.75;;;27.66;42.89
69796;BME280;57073;45.650;9.612;2022-07-18T03:20:36;99806.78;;;27.58;43.62
69796;BME280;57073;45.650;9.612;2022-07-18T03:22:37;99803.25;;;27.75;43.61
69796;BME280;57073;45.650;9.612;2022-07-18T03:24:37;99810.72;;;27.75;43.07
69796;BME280;57073;45.650;9.612;2022-07-18T03:26:37;99809.94;;;27.83;43.33
69796;BME280;57073;45.650;9.612;2022-07-18T03:28:38;99816.13;;;27.88;43.17
69796;BME280;57073;45.650;9.612;2022-07-18T03:30:38;99820.66;;;27.84;43.89
69796;BME280;57073;45.650;9.612;2022-07-18T03:32:39;99817.88;;;27.84;43.36
69796;BME280;57073;45.650;9.612;2022-07-18T03:34:39;99822.41;;;27.80;43.10
69796;BME280;57073;45.650;9.612;2022-07-18T03:36:40;99828.13;;;27.84;43.59
69796;BME280;57073;45.650;9.612;2022-07-18T03:38:40;99823.72;;;27.83;42.87
69796;BME280;57073;45.650;9.612;2022-07-18T03:40:43;99822.28;;;27.85;42.90
69796;BME280;57073;45.650;9.612;2022-07-18T03:42:43;99822.09;;;27.82;43.51
69796;BME280;57073;45.650;9.612;2022-07-18T03:44:44;99828.75;;;27.81;42.69
69796;BME280;57073;45.650;9.612;2022-07-18T03:46:44;99830.03;;;27.75;43.95
69796;BME280;57073;45.650;9.612;2022-07-18T03:48:44;99828.38;;;27.73;44.28
69796;BME280;57073;45.650;9.612;2022-07-18T03:50:45;99829.22;;;27.74;44.22
69796;BME280;57073;45.650;9.612;2022-07-18T03:52:45;99826.66;;;27.78;43.15
69796;BME280;57073;45.650;9.612;2022-07-18T03:54:45;99817.38;;;27.73;43.92
69796;BME280;57073;45.650;9.612;2022-07-18T03:56:46;99820.13;;;27.73;44.01
69796;BME280;57073;45.650;9.612;2022-07-18T03:58:46;99819.31;;;27.73;44.18
69796;BME280;57073;45.650;9.612;2022-07-18T04:00:46;99810.41;;;27.76;44.01
69796;BME280;57073;45.650;9.612;2022-07-18T04:02:47;99819.97;;;27.79;44.55
69796;BME280;57073;45.650;9.612;2022-07-18T04:04:48;99818.88;;;27.80;43.85
69796;BME280;57073;45.650;9.612;2022-07-18T04:06:48;99814.16;;;27.80;43.79
69796;BME280;57073;45.650;9.612;2022-07-18T04:08:48;99820.47;;;27.81;43.97
69796;BME280;57073;45.650;9.612;2022-07-18T04:10:49;99822.59;;;27.84;43.83
69796;BME280;57073;45.650;9.612;2022-07-18T04:12:52;99826.47;;;27.83;44.60
69796;BME280;57073;45.650;9.612;2022-07-18T04:14:53;99822.78;;;27.87;43.29
69796;BME280;57073;45.650;9.612;2022-07-18T04:16:53;99828.28;;;27.87;43.66
69796;BME280;57073;45.650;9.612;2022-07-18T04:18:54;99826.84;;;27.90;44.50
69796;BME280;57073;45.650;9.612;2022-07-18T04:20:54;99829.94;;;27.88;43.91
69796;BME280;57073;45.650;9.612;2022-07-18T04:22:58;99829.09;;;27.88;44.03
69796;BME280;57073;45.650;9.612;2022-07-18T04:24:58;99824.72;;;27.87;44.09
69796;BME280;57073;45.650;9.612;2022-07-18T04:26:59;99828.53;;;28.00;43.93
69796;BME280;57073;45.650;9.612;2022-07-18T04:28:59;99831.28;;;28.00;44.31
69796;BME280;57073;45.650;9.612;2022-07-18T04:31:00;99837.13;;;27.98;43.71
69796;BME280;57073;45.650;9.612;2022-07-18T04:33:02;99823.94;;;27.95;43.63
69796;BME280;57073;45.650;9.612;2022-07-18T04:35:05;99833.88;;;28.05;43.52
69796;BME280;57073;45.650;9.612;2022-07-18T04:37:05;99834.06;;;28.26;42.92
69796;BME280;57073;45.650;9.612;2022-07-18T04:39:05;99840.09;;;28.37;43.07
69796;BME280;57073;45.650;9.612;2022-07-18T04:41:06;99837.88;;;28.56;42.35
69796;BME280;57073;45.650;9.612;2022-07-18T04:43:07;99838.03;;;28.77;42.07
69796;BME280;57073;45.650;9.612;2022-07-18T04:45:08;99846.47;;;28.90;41.46
69796;BME280;57073;45.650;9.612;2022-07-18T04:47:09;99844.97;;;29.10;41.37
69796;BME280;57073;45.650;9.612;2022-07-18T04:49:09;99848.53;;;29.28;40.87
69796;BME280;57073;45.650;9.612;2022-07-18T04:51:10;99854.50;;;29.47;40.12
69796;BME280;57073;45.650;9.612;2022-07-18T04:53:10;99852.34;;;29.61;40.40
69796;BME280;57073;45.650;9.612;2022-07-18T04:55:11;99853.84;;;29.50;40.74
69796;BME280;57073;45.650;9.612;2022-07-18T04:57:12;99846.84;;;29.53;41.35
69796;BME280;57073;45.650;9.612;2022-07-18T04:59:14;99851.69;;;29.65;40.50
69796;BME280;57073;45.650;9.612;2022-07-18T05:01:15;99851.94;;;29.80;40.37
69796;BME280;57073;45.650;9.612;2022-07-18T05:03:16;99855.81;;;29.97;39.81
69796;BME280;57073;45.650;9.612;2022-07-18T05:05:18;99854.97;;;29.96;39.39
69796;BME280;57073;45.650;9.612;2022-07-18T05:07:18;99856.91;;;30.05;39.22
69796;BME280;57073;45.650;9.612;2022-07-18T05:09:18;99857.69;;;30.05;39.44
69796;BME280;57073;45.650;9.612;2022-07-18T05:11:19;99854.50;;;30.24;39.07
69796;BME280;57073;45.650;9.612;2022-07-18T05:13:19;99856.03;;;30.43;38.87
69796;BME280;57073;45.650;9.612;2022-07-18T05:15:22;99847.34;;;30.23;38.41
69796;BME280;57073;45.650;9.612;2022-07-18T05:17:22;99850.84;;;30.32;37.61
69796;BME280;57073;45.650;9.612;2022-07-18T05:19:23;99850.50;;;30.43;37.41
69796;BME280;57073;45.650;9.612;2022-07-18T05:21:23;99851.06;;;30.69;36.70
69796;BME280;57073;45.650;9.612;2022-07-18T05:23:24;99851.97;;;30.82;37.17
69796;BME280;57073;45.650;9.612;2022-07-18T05:25:24;99855.00;;;30.89;36.36
69796;BME280;57073;45.650;9.612;2022-07-18T05:27:24;99851.56;;;30.92;34.76
69796;BME280;57073;45.650;9.612;2022-07-18T05:29:25;99849.97;;;31.04;33.66
69796;BME280;57073;45.650;9.612;2022-07-18T05:31:25;99849.97;;;31.04;33.66
69796;BME280;57073;45.650;9.612;2022-07-18T05:33:26;99845.97;;;31.13;33.54
69796;BME280;57073;45.650;9.612;2022-07-18T05:35:26;99842.06;;;31.27;32.31
69796;BME280;57073;45.650;9.612;2022-07-18T05:37:26;99849.28;;;31.40;32.38
69796;BME280;57073;45.650;9.612;2022-07-18T05:39:27;99851.81;;;31.45;31.56
69796;BME280;57073;45.650;9.612;2022-07-18T05:41:27;99853.97;;;31.61;31.77
69796;BME280;57073;45.650;9.612;2022-07-18T05:43:27;99855.34;;;31.67;31.61
69796;BME280;57073;45.650;9.612;2022-07-18T05:45:28;99859.97;;;31.63;30.21
69796;BME280;57073;45.650;9.612;2022-07-18T05:47:29;99855.03;;;31.93;30.87
69796;BME280;57073;45.650;9.612;2022-07-18T05:49:29;99859.84;;;31.96;30.25
69796;BME280;57073;45.650;9.612;2022-07-18T05:51:30;99856.84;;;32.01;30.17
69796;BME280;57073;45.650;9.612;2022-07-18T05:53:30;99861.16;;;32.11;30.56
69796;BME280;57073;45.650;9.612;2022-07-18T05:55:31;99853.31;;;32.13;29.59
69796;BME280;57073;45.650;9.612;2022-07-18T05:57:31;99860.00;;;32.12;28.96
69796;BME280;57073;45.650;9.612;2022-07-18T05:59:32;99846.34;;;32.19;30.07
69796;BME280;57073;45.650;9.612;2022-07-18T06:01:32;99852.13;;;32.26;29.06
69796;BME280;57073;45.650;9.612;2022-07-18T06:03:32;99829.75;;;32.35;29.63
69796;BME280;57073;45.650;9.612;2022-07-18T06:05:33;99838.41;;;32.46;29.65
69796;BME280;57073;45.650;9.612;2022-07-18T06:07:33;99843.50;;;32.56;30.47
69796;BME280;57073;45.650;9.612;2022-07-18T06:09:34;99836.31;;;32.55;29.83
69796;BME280;57073;45.650;9.612;2022-07-18T06:11:34;99851.69;;;32.65;29.10
69796;BME280;57073;45.650;9.612;2022-07-18T06:13:36;99841.16;;;32.71;29.65
69796;BME280;57073;45.650;9.612;2022-07-18T06:15:37;99843.94;;;32.71;29.33
69796;BME280;57073;45.650;9.612;2022-07-18T06:17:37;99857.88;;;32.86;30.00
69796;BME280;57073;45.650;9.612;2022-07-18T06:19:38;99857.72;;;32.95;29.80
69796;BME280;57073;45.650;9.612;2022-07-18T06:21:39;99854.69;;;33.00;29.39
69796;BME280;57073;45.650;9.612;2022-07-18T06:23:39;99842.38;;;33.01;29.79
69796;BME280;57073;45.650;9.612;2022-07-18T06:25:40;99849.31;;;33.08;29.06
69796;BME280;57073;45.650;9.612;2022-07-18T06:27:41;99847.91;;;33.14;28.80
69796;BME280;57073;45.650;9.612;2022-07-18T06:29:41;99851.34;;;33.23;29.62
69796;BME280;57073;45.650;9.612;2022-07-18T06:31:43;99857.47;;;33.29;29.05
69796;BME280;57073;45.650;9.612;2022-07-18T06:33:43;99846.34;;;33.29;28.95
69796;BME280;57073;45.650;9.612;2022-07-18T06:35:44;99851.19;;;33.32;29.01
69796;BME280;57073;45.650;9.612;2022-07-18T06:37:46;99858.84;;;33.51;28.56
69796;BME280;57073;45.650;9.612;2022-07-18T06:39:47;99863.06;;;33.60;28.09
69796;BME280;57073;45.650;9.612;2022-07-18T06:41:48;99860.19;;;33.57;27.81
69796;BME280;57073;45.650;9.612;2022-07-18T06:43:48;99849.44;;;33.71;28.99
69796;BME280;57073;45.650;9.612;2022-07-18T06:45:49;99863.97;;;33.80;28.60
69796;BME280;57073;45.650;9.612;2022-07-18T06:47:52;99859.75;;;33.87;28.79
69796;BME280;57073;45.650;9.612;2022-07-18T06:49:52;99858.66;;;33.75;28.30
69796;BME280;57073;45.650;9.612;2022-07-18T06:51:52;99847.72;;;33.67;28.90
69796;BME280;57073;45.650;9.612;2022-07-18T06:53:53;99842.53;;;33.65;27.41
69796;BME280;57073;45.650;9.612;2022-07-18T06:55:54;99849.16;;;33.76;27.50
69796;BME280;57073;45.650;9.612;2022-07-18T06:57:54;99849.25;;;33.96;27.64
69796;BME280;57073;45.650;9.612;2022-07-18T06:59:55;99853.09;;;33.91;27.17
69796;BME280;57073;45.650;9.612;2022-07-18T07:01:55;99861.00;;;34.05;27.25
69796;BME280;57073;45.650;9.612;2022-07-18T07:03:55;99859.38;;;34.20;27.18
69796;BME280;57073;45.650;9.612;2022-07-18T07:05:56;99857.09;;;34.26;27.72
69796;BME280;57073;45.650;9.612;2022-07-18T07:07:56;99861.34;;;34.20;27.10
69796;BME280;57073;45.650;9.612;2022-07-18T07:09:56;63708.63;;;-147.61;100.00
69796;BME280;57073;45.650;9.612;2022-07-18T07:11:57;63708.63;;;-147.61;100.00
69796;BME280;57073;45.650;9.612;2022-07-18T07:13:57;63708.63;;;-147.61;100.00
69796;BME280;57073;45.650;9.612;2022-07-18T07:15:58;99866.16;;;34.58;28.14
69796;BME280;57073;45.650;9.612;2022-07-18T07:17:58;99862.25;;;34.63;27.31
69796;BME280;57073;45.650;9.612;2022-07-18T07:19:58;99864.31;;;34.66;27.23
69796;BME280;57073;45.650;9.612;2022-07-18T07:21:59;99856.16;;;34.73;26.86
69796;BME280;57073;45.650;9.612;2022-07-18T07:23:59;99853.53;;;34.64;26.48
69796;BME280;57073;45.650;9.612;2022-07-18T07:26:00;99860.13;;;34.72;27.09
69796;BME280;57073;45.650;9.612;2022-07-18T07:28:00;99858.50;;;34.71;27.93
69796;BME280;57073;45.650;9.612;2022-07-18T07:30:01;99850.44;;;34.85;27.47
69796;BME280;57073;45.650;9.612;2022-07-18T07:32:01;99861.06;;;34.99;27.31
69796;BME280;57073;45.650;9.612;2022-07-18T07:34:02;99854.66;;;34.99;26.54
69796;BME280;57073;45.650;9.612;2022-07-18T07:36:02;99853.94;;;35.02;26.38
69796;BME280;57073;45.650;9.612;2022-07-18T07:38:03;99844.50;;;35.10;27.16
69796;BME280;57073;45.650;9.612;2022-07-18T07:40:04;99849.72;;;35.11;25.93
69796;BME280;57073;45.650;9.612;2022-07-18T07:42:05;63708.63;;;-147.61;100.00
69796;BME280;57073;45.650;9.612;2022-07-18T07:44:06;63708.63;;;-147.61;100.00
69796;BME280;57073;45.650;9.612;2022-07-18T07:46:06;63708.63;;;-147.61;100.00
69796;BME280;57073;45.650;9.612;2022-07-18T07:48:07;63708.63;;;-147.61;100.00
69796;BME280;57073;45.650;9.612;2022-07-18T07:50:08;63708.63;;;-147.61;100.00
69796;BME280;57073;45.650;9.612;2022-07-18T07:52:09;63708.63;;;-147.61;100.00
69796;BME280;57073;45.650;9.612;2022-07-18T07:54:11;63708.63;;;-147.61;100.00
69796;BME280;57073;45.650;9.612;2022-07-18T07:56:12;63708.63;;;-147.61;100.00
69796;BME280;57073;45.650;9.612;2022-07-18T07:58:12;63708.63;;;-147.61;100.00
69796;BME280;57073;45.650;9.612;2022-07-18T08:00:13;63708.63;;;-147.61;100.00
69796;BME280;57073;45.650;9.612;2022-07-18T08:02:14;63708.63;;;-147.61;100.00
69796;BME280;57073;45.650;9.612;2022-07-18T08:04:15;63708.63;;;-147.61;100.00
69796;BME280;57073;45.650;9.612;2022-07-18T08:06:15;63708.63;;;-147.61;100.00
69796;BME280;57073;45.650;9.612;2022-07-18T08:08:17;63708.63;;;-147.61;100.00
69796;BME280;57073;45.650;9.612;2022-07-18T08:10:18;63708.63;;;-147.61;100.00
69796;BME280;57073;45.650;9.612;2022-07-18T08:12:19;63708.63;;;-147.61;100.00
69796;BME280;57073;45.650;9.612;2022-07-18T08:14:19;63708.63;;;-147.61;100.00
69796;BME280;57073;45.650;9.612;2022-07-18T08:16:20;63708.63;;;-147.61;100.00
69796;BME280;57073;45.650;9.612;2022-07-18T08:18:20;63708.63;;;-147.61;100.00
69796;BME280;57073;45.650;9.612;2022-07-18T08:20:21;63708.63;;;-147.61;100.00
69796;BME280;57073;45.650;9.612;2022-07-18T08:22:23;63708.63;;;-147.61;100.00
69796;BME280;57073;45.650;9.612;2022-07-18T08:24:23;63708.63;;;-147.61;100.00
69796;BME280;57073;45.650;9.612;2022-07-18T08:26:24;63708.63;;;-147.61;100.00
69796;BME280;57073;45.650;9.612;2022-07-18T08:28:25;63708.63;;;-147.61;100.00
69796;BME280;57073;45.650;9.612;2022-07-18T08:30:25;63708.63;;;-147.61;100.00
69796;BME280;57073;45.650;9.612;2022-07-18T08:32:26;63708.63;;;-147.61;100.00
69796;BME280;57073;45.650;9.612;2022-07-18T08:34:26;63708.63;;;-147.61;100.00
69796;BME280;57073;45.650;9.612;2022-07-18T08:36:27;63708.63;;;-147.61;100.00
69796;BME280;57073;45.650;9.612;2022-07-18T08:38:27;63708.63;;;-147.61;100.00
69796;BME280;57073;45.650;9.612;2022-07-18T08:40:28;63708.63;;;-147.61;100.00
69796;BME280;57073;45.650;9.612;2022-07-18T08:42:29;63708.63;;;-147.61;100.00
69796;BME280;57073;45.650;9.612;2022-07-18T08:44:33;63708.63;;;-147.61;100.00
69796;BME280;57073;45.650;9.612;2022-07-18T08:46:34;63708.63;;;-147.61;100.00
69796;BME280;57073;45.650;9.612;2022-07-18T08:48:36;63708.63;;;-147.61;100.00
69796;BME280;57073;45.650;9.612;2022-07-18T08:50:37;63708.63;;;-147.61;100.00
69796;BME280;57073;45.650;9.612;2022-07-18T08:52:37;63708.63;;;-147.61;100.00
69796;BME280;57073;45.650;9.612;2022-07-18T08:54:39;63708.63;;;-147.61;100.00
69796;BME280;57073;45.650;9.612;2022-07-18T08:56:39;63708.63;;;-147.61;100.00
69796;BME280;57073;45.650;9.612;2022-07-18T08:58:40;63708.63;;;-147.61;100.00
69796;BME280;57073;45.650;9.612;2022-07-18T09:00:40;63708.63;;;-147.61;100.00
69796;BME280;57073;45.650;9.612;2022-07-18T09:02:41;63708.63;;;-147.61;100.00
69796;BME280;57073;45.650;9.612;2022-07-18T09:04:43;63708.63;;;-147.61;100.00
69796;BME280;57073;45.650;9.612;2022-07-18T09:06:50;63708.63;;;-147.61;100.00
69796;BME280;57073;45.650;9.612;2022-07-18T09:09:01;63708.63;;;-147.61;100.00
69796;BME280;57073;45.650;9.612;2022-07-18T09:11:03;63708.63;;;-147.61;100.00
69796;BME280;57073;45.650;9.612;2022-07-18T09:13:04;63708.63;;;-147.61;100.00
69796;BME280;57073;45.650;9.612;2022-07-18T09:15:06;63708.63;;;-147.61;100.00
69796;BME280;57073;45.650;9.612;2022-07-18T09:17:21;63708.63;;;-147.61;100.00
69796;BME280;57073;45.650;9.612;2022-07-18T09:19:22;63708.63;;;-147.61;100.00
69796;BME280;57073;45.650;9.612;2022-07-18T09:21:23;63708.63;;;-147.61;100.00
69796;BME280;57073;45.650;9.612;2022-07-18T09:23:28;63708.63;;;-147.61;100.00
69796;BME280;57073;45.650;9.612;2022-07-18T09:25:32;63708.63;;;-147.61;100.00
69796;BME280;57073;45.650;9.612;2022-07-18T09:29:36;63708.63;;;-147.61;100.00
69796;BME280;57073;45.650;9.612;2022-07-18T09:31:36;63708.63;;;-147.61;100.00
69796;BME280;57073;45.650;9.612;2022-07-18T09:33:36;63708.63;;;-147.61;100.00
69796;BME280;57073;45.650;9.612;2022-07-18T09:35:50;63708.63;;;-147.61;100.00
69796;BME280;57073;45.650;9.612;2022-07-18T09:37:53;63708.63;;;-147.61;100.00
69796;BME280;57073;45.650;9.612;2022-07-18T09:40:13;63708.63;;;-147.61;100.00
69796;BME280;57073;45.650;9.612;2022-07-18T09:42:16;63708.63;;;-147.61;100.00
69796;BME280;57073;45.650;9.612;2022-07-18T09:44:17;63708.63;;;-147.61;100.00
69796;BME280;57073;45.650;9.612;2022-07-18T09:46:19;63708.63;;;-147.61;100.00
69796;BME280;57073;45.650;9.612;2022-07-18T09:48:24;63708.63;;;-147.61;100.00
69796;BME280;57073;45.650;9.612;2022-07-18T09:50:32;63708.63;;;-147.61;100.00
69796;BME280;57073;45.650;9.612;2022-07-18T09:52:33;63708.63;;;-147.61;100.00
69796;BME280;57073;45.650;9.612;2022-07-18T09:54:38;63708.63;;;-147.61;100.00
69796;BME280;57073;45.650;9.612;2022-07-18T09:56:39;63708.63;;;-147.61;100.00
69796;BME280;57073;45.650;9.612;2022-07-18T09:58:54;63708.63;;;-147.61;100.00
69796;BME280;57073;45.650;9.612;2022-07-18T10:00:56;63708.63;;;-147.61;100.00
69796;BME280;57073;45.650;9.612;2022-07-18T10:02:58;63708.63;;;-147.61;100.00
69796;BME280;57073;45.650;9.612;2022-07-18T10:04:59;63708.63;;;-147.61;100.00
69796;BME280;57073;45.650;9.612;2022-07-18T10:06:59;63708.63;;;-147.61;100.00
69796;BME280;57073;45.650;9.612;2022-07-18T10:09:00;63708.63;;;-147.61;100.00
69796;BME280;57073;45.650;9.612;2022-07-18T10:11:03;63708.63;;;-147.61;100.00
69796;BME280;57073;45.650;9.612;2022-07-18T10:13:05;63708.63;;;-147.61;100.00
69796;BME280;57073;45.650;9.612;2022-07-18T10:15:06;63708.63;;;-147.61;100.00
69796;BME280;57073;45.650;9.612;2022-07-18T10:17:06;63708.63;;;-147.61;100.00
69796;BME280;57073;45.650;9.612;2022-07-18T10:19:07;63708.63;;;-147.61;100.00
69796;BME280;57073;45.650;9.612;2022-07-18T10:21:09;63708.63;;;-147.61;100.00
69796;BME280;57073;45.650;9.612;2022-07-18T10:23:22;63708.63;;;-147.61;100.00
69796;BME280;57073;45.650;9.612;2022-07-18T10:25:23;63708.63;;;-147.61;100.00
69796;BME280;57073;45.650;9.612;2022-07-18T10:27:24;63708.63;;;-147.61;100.00
69796;BME280;57073;45.650;9.612;2022-07-18T10:29:25;63708.63;;;-147.61;100.00
69796;BME280;57073;45.650;9.612;2022-07-18T10:33:46;63708.63;;;-147.61;100.00
69796;BME280;57073;45.650;9.612;2022-07-18T10:36:09;63708.63;;;-147.61;100.00
69796;BME280;57073;45.650;9.612;2022-07-18T10:38:20;63708.63;;;-147.61;100.00
69796;BME280;57073;45.650;9.612;2022-07-18T10:42:22;63708.63;;;-147.61;100.00